Akademik Fedorov — UCKZ — position and weather

sailwx.info

Track history (hours):
 
Tides and Currents Weather Stations Pressure Air Temp Water Temp Dewpoint Dewpoint Depression Visibility Wind Speed Wind Dir Waves Ship Positions

Oceanographic research ship Akademik Fedorov (Russia)

Detailed information on ship capabilities available from ARCUS's ALIAS (Arctic Logistics Information and Support) project.

Last reported at 2014-Oct-12 04:12 UTC. Time now 2014-Oct-21 21:40 UTC.
Position N 59°59' E 021°42'.
Warning: this ship's position is 9 days out of date.

Length 141 m; beam 17 m.

Type: Ship. MMSI: 273412710.

Date/timePositionNaut miles runAvg speedWind from/ knotsBaromVisibWave heightAir tempDewpointWater temp
2014-Oct-12 04:12N 59°59' E 021°42'913.7
2014-Oct-12 03:33N 59°52' E 021°29'1010.4
2014-Oct-12 02:33N 59°43' E 021°21'9 9.1
2014-Oct-12 01:33N 59°34' E 021°20'8 8.3
2014-Oct-12 00:33N 59°26' E 021°19'8 8.2
2014-Oct-11 23:32N 59°17' E 021°19'286 7.5
2014-Oct-10 09:28N 55°37' E 015°38'1111.6
2014-Oct-10 08:33N 55°35' E 015°20'1513.0
2014-Oct-10 07:26N 55°31' E 014°55'1112.3
2014-Oct-10 06:33N 55°24' E 014°41'1312.8
2014-Oct-10 05:33N 55°14' E 014°26'1413.7
2014-Oct-10 04:33N 55°04' E 014°11'3213.5
2014-Oct-10 02:13N 54°52' E 013°20'2313.6
2014-Oct-10 00:33N 54°45' E 012°43'1413.8
2014-Oct-09 23:33N 54°37' E 012°22'1313.2
2014-Oct-09 22:33N 54°26' E 012°11'1413.6
2014-Oct-09 21:34N 54°25' E 011°48'1313.0
2014-Oct-09 20:34N 54°30' E 011°28'1312.5
2014-Oct-09 19:34N 54°35' E 011°08'1313.3
2014-Oct-09 18:33N 54°34' E 010°45'1313.2
2014-Oct-09 17:33N 54°30' E 010°23'1111.3
2014-Oct-09 16:33N 54°22' E 010°10'2 1.7
2014-Oct-09 15:33N 54°20' E 010°10'0 0.0
2014-Oct-09 14:33N 54°20' E 010°10'0 0.0
2014-Oct-09 13:33N 54°20' E 010°10'0 0.0
2014-Oct-09 12:33N 54°20' E 010°10'0 0.0
2014-Oct-09 11:33N 54°20' E 010°10'0 0.0
2014-Oct-09 10:33N 54°20' E 010°10'0 0.0
2014-Oct-09 09:33N 54°20' E 010°10'0 0.0
2014-Oct-09 08:33N 54°20' E 010°10'0 0.0
2014-Oct-09 07:33N 54°20' E 010°10'0 0.0
2014-Oct-09 06:33N 54°20' E 010°10'0 0.0
2014-Oct-09 05:33N 54°20' E 010°10'2 1.7
2014-Oct-09 04:33N 54°22' E 010°10'1010.1
2014-Oct-09 03:33N 54°30' E 010°19'7 6.9
2014-Oct-09 02:33N 54°33' E 010°30'7 7.4
2014-Oct-09 01:33N 54°37' E 010°41'12 7.8
2014-Oct-09 00:04N 54°47' E 010°52'117 9.3
2014-Oct-08 11:29N 56°40' E 011°47'1010.9
2014-Oct-08 10:33N 56°50' E 011°49'1212.4
2014-Oct-08 09:33N 57°02' E 011°41'1212.3
2014-Oct-08 08:34N 57°13' E 011°34'1212.4
2014-Oct-08 07:33N 57°25' E 011°26'1211.7
2014-Oct-08 06:34N 57°35' E 011°15'1211.8
2014-Oct-08 05:33N 57°46' E 011°04'1212.4
2014-Oct-08 04:34N 57°55' E 010°49'1312.7
2014-Oct-08 03:33N 57°58' E 010°26'1414.2
2014-Oct-08 02:32N 57°55' E 009°59'  
Track history (hours):
 
Tides and Currents Weather Stations Pressure Air Temp Water Temp Dewpoint Dewpoint Depression Visibility Wind Speed Wind Dir Waves Ship Positions

Oceanographic research ship Akademik Fedorov (Russia)

Detailed information on ship capabilities available from ARCUS's ALIAS (Arctic Logistics Information and Support) project.

Last reported at 2014-Oct-12 04:12 UTC. Time now 2014-Oct-21 21:40 UTC.
Position N 59°59' E 021°42'.
Warning: this ship's position is 9 days out of date.

Length 141 m; beam 17 m.

Type: Ship. MMSI: 273412710.

Date/timePositionNaut miles runAvg speedWind from/ knotsBaromVisibWave heightAir tempDewpointWater temp
2014-Oct-12 04:12N 59°59' E 021°42'913.7
2014-Oct-12 03:33N 59°52' E 021°29'1010.4
2014-Oct-12 02:33N 59°43' E 021°21'9 9.1
2014-Oct-12 01:33N 59°34' E 021°20'8 8.3
2014-Oct-12 00:33N 59°26' E 021°19'8 8.2
2014-Oct-11 23:32N 59°17' E 021°19'286 7.5
2014-Oct-10 09:28N 55°37' E 015°38'1111.6
2014-Oct-10 08:33N 55°35' E 015°20'1513.0
2014-Oct-10 07:26N 55°31' E 014°55'1112.3
2014-Oct-10 06:33N 55°24' E 014°41'1312.8
2014-Oct-10 05:33N 55°14' E 014°26'1413.7
2014-Oct-10 04:33N 55°04' E 014°11'3213.5
2014-Oct-10 02:13N 54°52' E 013°20'2313.6
2014-Oct-10 00:33N 54°45' E 012°43'1413.8
2014-Oct-09 23:33N 54°37' E 012°22'1313.2
2014-Oct-09 22:33N 54°26' E 012°11'1413.6
2014-Oct-09 21:34N 54°25' E 011°48'1313.0
2014-Oct-09 20:34N 54°30' E 011°28'1312.5
2014-Oct-09 19:34N 54°35' E 011°08'1313.3
2014-Oct-09 18:33N 54°34' E 010°45'1313.2
2014-Oct-09 17:33N 54°30' E 010°23'1111.3
2014-Oct-09 16:33N 54°22' E 010°10'2 1.7
2014-Oct-09 15:33N 54°20' E 010°10'0 0.0
2014-Oct-09 14:33N 54°20' E 010°10'0 0.0
2014-Oct-09 13:33N 54°20' E 010°10'0 0.0
2014-Oct-09 12:33N 54°20' E 010°10'0 0.0
2014-Oct-09 11:33N 54°20' E 010°10'0 0.0
2014-Oct-09 10:33N 54°20' E 010°10'0 0.0
2014-Oct-09 09:33N 54°20' E 010°10'0 0.0
2014-Oct-09 08:33N 54°20' E 010°10'0 0.0
2014-Oct-09 07:33N 54°20' E 010°10'0 0.0
2014-Oct-09 06:33N 54°20' E 010°10'0 0.0
2014-Oct-09 05:33N 54°20' E 010°10'2 1.7
2014-Oct-09 04:33N 54°22' E 010°10'1010.1
2014-Oct-09 03:33N 54°30' E 010°19'7 6.9
2014-Oct-09 02:33N 54°33' E 010°30'7 7.4
2014-Oct-09 01:33N 54°37' E 010°41'12 7.8
2014-Oct-09 00:04N 54°47' E 010°52'117 9.3
2014-Oct-08 11:29N 56°40' E 011°47'1010.9
2014-Oct-08 10:33N 56°50' E 011°49'1212.4
2014-Oct-08 09:33N 57°02' E 011°41'1212.3
2014-Oct-08 08:34N 57°13' E 011°34'1212.4
2014-Oct-08 07:33N 57°25' E 011°26'1211.7
2014-Oct-08 06:34N 57°35' E 011°15'1211.8
2014-Oct-08 05:33N 57°46' E 011°04'1212.4
2014-Oct-08 04:34N 57°55' E 010°49'1312.7
2014-Oct-08 03:33N 57°58' E 010°26'1414.2
2014-Oct-08 02:32N 57°55' E 009°59'  

Dump ship's entire track history